sensor_id;sensor_type;location;lat;lon;timestamp;P1;durP1;ratioP1;P2;durP2;ratioP2
37937;SDS011;23763;48.130;11.602;2022-10-31T00:01:13;13.13;;;10.05;;
37937;SDS011;23763;48.130;11.602;2022-10-31T00:03:41;13.15;;;10.48;;
37937;SDS011;23763;48.130;11.602;2022-10-31T00:06:06;12.18;;;9.60;;
37937;SDS011;23763;48.130;11.602;2022-10-31T00:08:32;12.13;;;10.63;;
37937;SDS011;23763;48.130;11.602;2022-10-31T00:10:58;16.17;;;10.30;;
37937;SDS011;23763;48.130;11.602;2022-10-31T00:13:23;14.18;;;10.48;;
37937;SDS011;23763;48.130;11.602;2022-10-31T00:15:49;14.70;;;10.20;;
37937;SDS011;23763;48.130;11.602;2022-10-31T00:18:15;15.10;;;9.38;;
37937;SDS011;23763;48.130;11.602;2022-10-31T00:20:40;13.70;;;9.85;;
37937;SDS011;23763;48.130;11.602;2022-10-31T00:23:06;14.13;;;9.27;;
37937;SDS011;23763;48.130;11.602;2022-10-31T00:25:33;10.73;;;9.60;;
37937;SDS011;23763;48.130;11.602;2022-10-31T00:28:00;12.85;;;9.35;;
37937;SDS011;23763;48.130;11.602;2022-10-31T00:30:27;11.40;;;8.70;;
37937;SDS011;23763;48.130;11.602;2022-10-31T00:32:52;9.45;;;8.48;;
37937;SDS011;23763;48.130;11.602;2022-10-31T00:35:18;10.98;;;8.75;;
37937;SDS011;23763;48.130;11.602;2022-10-31T00:37:52;10.00;;;8.68;;
37937;SDS011;23763;48.130;11.602;2022-10-31T00:40:18;16.45;;;9.05;;
37937;SDS011;23763;48.130;11.602;2022-10-31T00:42:43;12.32;;;9.15;;
37937;SDS011;23763;48.130;11.602;2022-10-31T00:45:09;10.85;;;8.70;;
37937;SDS011;23763;48.130;11.602;2022-10-31T00:47:35;12.63;;;8.75;;
37937;SDS011;23763;48.130;11.602;2022-10-31T00:50:02;9.10;;;8.18;;
37937;SDS011;23763;48.130;11.602;2022-10-31T00:52:28;15.90;;;8.48;;
37937;SDS011;23763;48.130;11.602;2022-10-31T00:54:54;13.65;;;9.20;;
37937;SDS011;23763;48.130;11.602;2022-10-31T00:57:19;12.10;;;9.30;;
37937;SDS011;23763;48.130;11.602;2022-10-31T00:59:45;10.52;;;8.70;;
37937;SDS011;23763;48.130;11.602;2022-10-31T01:02:10;17.13;;;9.07;;
37937;SDS011;23763;48.130;11.602;2022-10-31T01:04:36;14.55;;;8.55;;
37937;SDS011;23763;48.130;11.602;2022-10-31T01:07:02;15.38;;;9.50;;
37937;SDS011;23763;48.130;11.602;2022-10-31T01:09:27;13.88;;;8.95;;
37937;SDS011;23763;48.130;11.602;2022-10-31T01:11:53;16.13;;;8.73;;
37937;SDS011;23763;48.130;11.602;2022-10-31T01:14:18;16.35;;;8.45;;
37937;SDS011;23763;48.130;11.602;2022-10-31T01:16:44;13.25;;;8.70;;
37937;SDS011;23763;48.130;11.602;2022-10-31T01:19:10;12.98;;;9.18;;
37937;SDS011;23763;48.130;11.602;2022-10-31T01:21:35;11.57;;;9.20;;
37937;SDS011;23763;48.130;11.602;2022-10-31T01:24:01;13.60;;;8.52;;
37937;SDS011;23763;48.130;11.602;2022-10-31T01:26:28;10.65;;;8.80;;
37937;SDS011;23763;48.130;11.602;2022-10-31T01:28:59;12.48;;;8.35;;
37937;SDS011;23763;48.130;11.602;2022-10-31T01:31:29;14.82;;;8.80;;
37937;SDS011;23763;48.130;11.602;2022-10-31T01:33:57;12.38;;;8.75;;
37937;SDS011;23763;48.130;11.602;2022-10-31T01:36:30;14.40;;;8.57;;
37937;SDS011;23763;48.130;11.602;2022-10-31T01:39:02;16.85;;;8.98;;
37937;SDS011;23763;48.130;11.602;2022-10-31T01:41:31;11.25;;;8.65;;
37937;SDS011;23763;48.130;11.602;2022-10-31T01:44:00;12.40;;;8.13;;
37937;SDS011;23763;48.130;11.602;2022-10-31T01:49:28;12.70;;;8.18;;
37937;SDS011;23763;48.130;11.602;2022-10-31T01:52:42;10.10;;;7.97;;
37937;SDS011;23763;48.130;11.602;2022-10-31T01:54:48;13.35;;;8.85;;
37937;SDS011;23763;48.130;11.602;2022-10-31T01:57:18;10.45;;;8.27;;
37937;SDS011;23763;48.130;11.602;2022-10-31T01:59:47;9.90;;;8.93;;
37937;SDS011;23763;48.130;11.602;2022-10-31T02:02:17;11.98;;;8.40;;
37937;SDS011;23763;48.130;11.602;2022-10-31T02:04:44;9.10;;;8.27;;
37937;SDS011;23763;48.130;11.602;2022-10-31T02:09:44;11.20;;;8.20;;
37937;SDS011;23763;48.130;11.602;2022-10-31T02:12:12;9.55;;;8.30;;
37937;SDS011;23763;48.130;11.602;2022-10-31T02:14:38;12.20;;;8.18;;
37937;SDS011;23763;48.130;11.602;2022-10-31T02:17:05;9.90;;;8.57;;
37937;SDS011;23763;48.130;11.602;2022-10-31T02:25:14;11.32;;;8.23;;
37937;SDS011;23763;48.130;11.602;2022-10-31T02:28:08;9.35;;;8.07;;
37937;SDS011;23763;48.130;11.602;2022-10-31T02:31:00;11.80;;;8.20;;
37937;SDS011;23763;48.130;11.602;2022-10-31T02:33:48;9.05;;;7.95;;
37937;SDS011;23763;48.130;11.602;2022-10-31T02:36:21;13.43;;;8.18;;
37937;SDS011;23763;48.130;11.602;2022-10-31T02:39:32;13.02;;;8.35;;
37937;SDS011;23763;48.130;11.602;2022-10-31T02:42:03;9.63;;;7.95;;
37937;SDS011;23763;48.130;11.602;2022-10-31T02:44:58;10.27;;;7.68;;
37937;SDS011;23763;48.130;11.602;2022-10-31T02:47:40;9.80;;;8.45;;
37937;SDS011;23763;48.130;11.602;2022-10-31T02:50:13;11.38;;;7.95;;
37937;SDS011;23763;48.130;11.602;2022-10-31T02:52:52;9.73;;;8.25;;
37937;SDS011;23763;48.130;11.602;2022-10-31T02:58:02;10.57;;;8.38;;
37937;SDS011;23763;48.130;11.602;2022-10-31T03:00:46;11.05;;;8.38;;
37937;SDS011;23763;48.130;11.602;2022-10-31T03:06:24;12.35;;;8.95;;
37937;SDS011;23763;48.130;11.602;2022-10-31T03:11:58;10.98;;;8.57;;
37937;SDS011;23763;48.130;11.602;2022-10-31T03:14:43;9.00;;;8.13;;
37937;SDS011;23763;48.130;11.602;2022-10-31T03:17:16;10.00;;;8.30;;
37937;SDS011;23763;48.130;11.602;2022-10-31T03:19:48;9.88;;;7.88;;
37937;SDS011;23763;48.130;11.602;2022-10-31T03:22:19;9.27;;;8.18;;
37937;SDS011;23763;48.130;11.602;2022-10-31T03:24:51;10.77;;;8.70;;
37937;SDS011;23763;48.130;11.602;2022-10-31T03:27:20;9.95;;;8.45;;
37937;SDS011;23763;48.130;11.602;2022-10-31T03:29:49;10.35;;;8.07;;
37937;SDS011;23763;48.130;11.602;2022-10-31T03:32:19;9.52;;;7.63;;
37937;SDS011;23763;48.130;11.602;2022-10-31T03:34:56;11.52;;;8.05;;
37937;SDS011;23763;48.130;11.602;2022-10-31T03:37:24;11.48;;;8.57;;
37937;SDS011;23763;48.130;11.602;2022-10-31T03:39:52;9.40;;;8.38;;
37937;SDS011;23763;48.130;11.602;2022-10-31T03:42:23;9.55;;;8.20;;
37937;SDS011;23763;48.130;11.602;2022-10-31T03:44:53;12.90;;;7.72;;
37937;SDS011;23763;48.130;11.602;2022-10-31T03:47:23;8.93;;;8.07;;
37937;SDS011;23763;48.130;11.602;2022-10-31T03:49:49;9.35;;;8.10;;
37937;SDS011;23763;48.130;11.602;2022-10-31T03:52:21;15.32;;;8.68;;
37937;SDS011;23763;48.130;11.602;2022-10-31T03:54:57;13.27;;;8.65;;
37937;SDS011;23763;48.130;11.602;2022-10-31T03:57:35;15.93;;;8.35;;
37937;SDS011;23763;48.130;11.602;2022-10-31T04:00:14;9.30;;;8.27;;
37937;SDS011;23763;48.130;11.602;2022-10-31T04:02:42;11.38;;;8.68;;
37937;SDS011;23763;48.130;11.602;2022-10-31T04:05:14;9.13;;;7.93;;
37937;SDS011;23763;48.130;11.602;2022-10-31T04:07:42;10.45;;;7.78;;
37937;SDS011;23763;48.130;11.602;2022-10-31T04:10:12;9.88;;;8.13;;
37937;SDS011;23763;48.130;11.602;2022-10-31T04:12:40;11.95;;;8.07;;
37937;SDS011;23763;48.130;11.602;2022-10-31T04:15:11;9.25;;;8.18;;
37937;SDS011;23763;48.130;11.602;2022-10-31T04:17:38;9.18;;;7.70;;
37937;SDS011;23763;48.130;11.602;2022-10-31T04:20:07;11.70;;;7.63;;
37937;SDS011;23763;48.130;11.602;2022-10-31T04:22:33;9.32;;;8.02;;
37937;SDS011;23763;48.130;11.602;2022-10-31T04:24:59;11.75;;;8.40;;
37937;SDS011;23763;48.130;11.602;2022-10-31T04:27:24;12.60;;;8.10;;
37937;SDS011;23763;48.130;11.602;2022-10-31T04:29:50;9.23;;;8.20;;
37937;SDS011;23763;48.130;11.602;2022-10-31T04:32:16;11.40;;;8.40;;
37937;SDS011;23763;48.130;11.602;2022-10-31T04:34:41;9.63;;;8.15;;
37937;SDS011;23763;48.130;11.602;2022-10-31T04:37:07;8.13;;;7.45;;
37937;SDS011;23763;48.130;11.602;2022-10-31T04:39:32;11.52;;;7.90;;
37937;SDS011;23763;48.130;11.602;2022-10-31T04:41:58;11.35;;;8.60;;
37937;SDS011;23763;48.130;11.602;2022-10-31T04:44:23;8.65;;;7.70;;
37937;SDS011;23763;48.130;11.602;2022-10-31T04:46:49;12.25;;;8.48;;
37937;SDS011;23763;48.130;11.602;2022-10-31T04:49:15;10.48;;;8.18;;
37937;SDS011;23763;48.130;11.602;2022-10-31T04:51:40;8.75;;;7.85;;
37937;SDS011;23763;48.130;11.602;2022-10-31T04:54:06;12.52;;;8.35;;
37937;SDS011;23763;48.130;11.602;2022-10-31T04:56:31;9.98;;;8.32;;
37937;SDS011;23763;48.130;11.602;2022-10-31T04:58:57;8.95;;;7.72;;
37937;SDS011;23763;48.130;11.602;2022-10-31T05:01:23;8.68;;;7.78;;
37937;SDS011;23763;48.130;11.602;2022-10-31T05:03:48;9.73;;;7.97;;
37937;SDS011;23763;48.130;11.602;2022-10-31T05:06:14;9.93;;;8.40;;
37937;SDS011;23763;48.130;11.602;2022-10-31T05:08:41;8.73;;;7.78;;
37937;SDS011;23763;48.130;11.602;2022-10-31T05:11:07;16.45;;;8.55;;
37937;SDS011;23763;48.130;11.602;2022-10-31T05:13:32;11.43;;;8.77;;
37937;SDS011;23763;48.130;11.602;2022-10-31T05:15:58;9.73;;;8.45;;
37937;SDS011;23763;48.130;11.602;2022-10-31T05:18:23;9.48;;;8.18;;
37937;SDS011;23763;48.130;11.602;2022-10-31T05:20:49;9.18;;;8.38;;
37937;SDS011;23763;48.130;11.602;2022-10-31T05:23:14;9.48;;;8.15;;
37937;SDS011;23763;48.130;11.602;2022-10-31T05:25:40;10.23;;;8.15;;
37937;SDS011;23763;48.130;11.602;2022-10-31T05:28:06;10.00;;;8.93;;
37937;SDS011;23763;48.130;11.602;2022-10-31T05:30:33;10.10;;;8.30;;
37937;SDS011;23763;48.130;11.602;2022-10-31T05:32:59;8.88;;;7.95;;
37937;SDS011;23763;48.130;11.602;2022-10-31T05:35:26;10.05;;;7.93;;
37937;SDS011;23763;48.130;11.602;2022-10-31T05:37:54;12.23;;;8.32;;
37937;SDS011;23763;48.130;11.602;2022-10-31T05:40:20;9.10;;;8.15;;
37937;SDS011;23763;48.130;11.602;2022-10-31T05:42:46;8.80;;;7.90;;
37937;SDS011;23763;48.130;11.602;2022-10-31T05:45:13;9.02;;;8.13;;
37937;SDS011;23763;48.130;11.602;2022-10-31T05:47:41;8.30;;;7.60;;
37937;SDS011;23763;48.130;11.602;2022-10-31T05:50:06;13.70;;;8.90;;
37937;SDS011;23763;48.130;11.602;2022-10-31T05:52:33;14.75;;;9.60;;
37937;SDS011;23763;48.130;11.602;2022-10-31T05:54:59;10.40;;;8.05;;
37937;SDS011;23763;48.130;11.602;2022-10-31T05:57:25;11.88;;;9.43;;
37937;SDS011;23763;48.130;11.602;2022-10-31T05:59:50;9.73;;;8.75;;
37937;SDS011;23763;48.130;11.602;2022-10-31T06:02:18;11.38;;;10.18;;
37937;SDS011;23763;48.130;11.602;2022-10-31T06:04:44;12.38;;;10.90;;
37937;SDS011;23763;48.130;11.602;2022-10-31T06:07:09;10.98;;;8.93;;
37937;SDS011;23763;48.130;11.602;2022-10-31T06:09:35;13.80;;;10.68;;
37937;SDS011;23763;48.130;11.602;2022-10-31T06:12:01;17.98;;;12.50;;
37937;SDS011;23763;48.130;11.602;2022-10-31T06:14:26;14.90;;;11.98;;
37937;SDS011;23763;48.130;11.602;2022-10-31T06:16:53;14.27;;;12.00;;
37937;SDS011;23763;48.130;11.602;2022-10-31T06:19:19;15.35;;;10.82;;
37937;SDS011;23763;48.130;11.602;2022-10-31T06:21:45;15.75;;;9.50;;
37937;SDS011;23763;48.130;11.602;2022-10-31T06:24:10;10.50;;;8.85;;
37937;SDS011;23763;48.130;11.602;2022-10-31T06:26:36;9.25;;;8.35;;
37937;SDS011;23763;48.130;11.602;2022-10-31T06:29:02;10.88;;;8.40;;
37937;SDS011;23763;48.130;11.602;2022-10-31T06:31:27;7.80;;;7.18;;
37937;SDS011;23763;48.130;11.602;2022-10-31T06:33:53;8.57;;;7.60;;
37937;SDS011;23763;48.130;11.602;2022-10-31T06:36:18;12.50;;;8.80;;
37937;SDS011;23763;48.130;11.602;2022-10-31T06:38:44;11.63;;;7.53;;
37937;SDS011;23763;48.130;11.602;2022-10-31T06:41:10;9.57;;;8.20;;
37937;SDS011;23763;48.130;11.602;2022-10-31T06:43:35;11.15;;;7.53;;
37937;SDS011;23763;48.130;11.602;2022-10-31T06:46:02;12.60;;;8.38;;
37937;SDS011;23763;48.130;11.602;2022-10-31T06:48:29;9.75;;;8.38;;
37937;SDS011;23763;48.130;11.602;2022-10-31T06:50:57;12.40;;;7.80;;
37937;SDS011;23763;48.130;11.602;2022-10-31T06:53:24;10.93;;;7.40;;
37937;SDS011;23763;48.130;11.602;2022-10-31T06:55:49;8.52;;;7.60;;
37937;SDS011;23763;48.130;11.602;2022-10-31T06:58:15;10.93;;;9.00;;
37937;SDS011;23763;48.130;11.602;2022-10-31T07:00:40;9.43;;;7.68;;
37937;SDS011;23763;48.130;11.602;2022-10-31T07:03:08;9.20;;;8.27;;
37937;SDS011;23763;48.130;11.602;2022-10-31T07:05:36;9.10;;;8.20;;
37937;SDS011;23763;48.130;11.602;2022-10-31T07:08:03;11.52;;;9.10;;
37937;SDS011;23763;48.130;11.602;2022-10-31T07:10:31;12.48;;;10.77;;
37937;SDS011;23763;48.130;11.602;2022-10-31T07:12:59;12.85;;;8.98;;
37937;SDS011;23763;48.130;11.602;2022-10-31T07:15:27;9.95;;;8.60;;
37937;SDS011;23763;48.130;11.602;2022-10-31T07:17:53;11.35;;;8.52;;
37937;SDS011;23763;48.130;11.602;2022-10-31T07:20:23;9.57;;;8.15;;
37937;SDS011;23763;48.130;11.602;2022-10-31T07:22:49;11.02;;;8.45;;
37937;SDS011;23763;48.130;11.602;2022-10-31T07:25:15;16.23;;;9.50;;
37937;SDS011;23763;48.130;11.602;2022-10-31T07:27:41;10.00;;;9.00;;
37937;SDS011;23763;48.130;11.602;2022-10-31T07:30:08;10.25;;;8.52;;
37937;SDS011;23763;48.130;11.602;2022-10-31T07:32:45;14.32;;;8.98;;
37937;SDS011;23763;48.130;11.602;2022-10-31T07:35:13;12.32;;;8.52;;
37937;SDS011;23763;48.130;11.602;2022-10-31T07:37:40;12.88;;;8.85;;
37937;SDS011;23763;48.130;11.602;2022-10-31T07:40:06;9.63;;;8.68;;
37937;SDS011;23763;48.130;11.602;2022-10-31T07:45:02;11.65;;;8.10;;
37937;SDS011;23763;48.130;11.602;2022-10-31T07:47:44;9.65;;;8.00;;
37937;SDS011;23763;48.130;11.602;2022-10-31T07:50:12;9.40;;;7.65;;
37937;SDS011;23763;48.130;11.602;2022-10-31T07:52:39;11.90;;;8.93;;
37937;SDS011;23763;48.130;11.602;2022-10-31T07:55:05;17.52;;;12.93;;
37937;SDS011;23763;48.130;11.602;2022-10-31T07:57:31;16.75;;;9.88;;
37937;SDS011;23763;48.130;11.602;2022-10-31T07:59:57;15.35;;;9.13;;
37937;SDS011;23763;48.130;11.602;2022-10-31T08:02:23;16.80;;;9.13;;
37937;SDS011;23763;48.130;11.602;2022-10-31T08:04:49;14.38;;;8.85;;
37937;SDS011;23763;48.130;11.602;2022-10-31T08:07:15;12.57;;;9.32;;
37937;SDS011;23763;48.130;11.602;2022-10-31T08:09:41;19.10;;;9.57;;
37937;SDS011;23763;48.130;11.602;2022-10-31T08:12:06;13.77;;;9.18;;
37937;SDS011;23763;48.130;11.602;2022-10-31T08:14:32;16.08;;;8.27;;
37937;SDS011;23763;48.130;11.602;2022-10-31T08:16:58;16.92;;;9.23;;
37937;SDS011;23763;48.130;11.602;2022-10-31T08:19:23;12.75;;;8.77;;
37937;SDS011;23763;48.130;11.602;2022-10-31T08:21:52;16.40;;;8.82;;
37937;SDS011;23763;48.130;11.602;2022-10-31T08:24:20;16.80;;;11.38;;
37937;SDS011;23763;48.130;11.602;2022-10-31T08:26:46;11.52;;;10.00;;
37937;SDS011;23763;48.130;11.602;2022-10-31T08:29:12;11.32;;;9.70;;
37937;SDS011;23763;48.130;11.602;2022-10-31T08:31:37;14.25;;;10.57;;
37937;SDS011;23763;48.130;11.602;2022-10-31T08:34:03;13.50;;;10.45;;
37937;SDS011;23763;48.130;11.602;2022-10-31T08:36:29;12.88;;;11.30;;
37937;SDS011;23763;48.130;11.602;2022-10-31T08:38:55;13.45;;;12.07;;
37937;SDS011;23763;48.130;11.602;2022-10-31T08:41:21;16.15;;;12.40;;
37937;SDS011;23763;48.130;11.602;2022-10-31T08:43:47;13.02;;;11.82;;
37937;SDS011;23763;48.130;11.602;2022-10-31T08:46:12;15.20;;;12.15;;
37937;SDS011;23763;48.130;11.602;2022-10-31T08:48:38;13.57;;;11.38;;
37937;SDS011;23763;48.130;11.602;2022-10-31T08:51:04;16.02;;;11.35;;
37937;SDS011;23763;48.130;11.602;2022-10-31T08:53:30;16.40;;;11.45;;
37937;SDS011;23763;48.130;11.602;2022-10-31T08:55:56;17.58;;;10.90;;
37937;SDS011;23763;48.130;11.602;2022-10-31T08:58:22;16.63;;;10.88;;
37937;SDS011;23763;48.130;11.602;2022-10-31T09:00:49;13.10;;;11.07;;
37937;SDS011;23763;48.130;11.602;2022-10-31T09:03:17;14.98;;;11.13;;
37937;SDS011;23763;48.130;11.602;2022-10-31T09:05:43;13.07;;;10.77;;
37937;SDS011;23763;48.130;11.602;2022-10-31T09:08:10;14.30;;;10.40;;
37937;SDS011;23763;48.130;11.602;2022-10-31T09:10:37;11.90;;;10.60;;
37937;SDS011;23763;48.130;11.602;2022-10-31T09:13:16;14.23;;;10.93;;
37937;SDS011;23763;48.130;11.602;2022-10-31T09:15:45;11.07;;;9.98;;
37937;SDS011;23763;48.130;11.602;2022-10-31T09:18:12;11.85;;;10.63;;
37937;SDS011;23763;48.130;11.602;2022-10-31T09:20:41;12.13;;;10.30;;
37937;SDS011;23763;48.130;11.602;2022-10-31T09:23:15;18.00;;;10.70;;
37937;SDS011;23763;48.130;11.602;2022-10-31T09:25:46;12.30;;;10.10;;
37937;SDS011;23763;48.130;11.602;2022-10-31T09:28:13;13.02;;;9.93;;
37937;SDS011;23763;48.130;11.602;2022-10-31T09:30:40;9.73;;;8.43;;
37937;SDS011;23763;48.130;11.602;2022-10-31T09:33:08;12.57;;;9.30;;
37937;SDS011;23763;48.130;11.602;2022-10-31T09:35:35;15.18;;;9.43;;
37937;SDS011;23763;48.130;11.602;2022-10-31T09:38:02;11.00;;;9.90;;
37937;SDS011;23763;48.130;11.602;2022-10-31T09:40:36;9.80;;;8.77;;
37937;SDS011;23763;48.130;11.602;2022-10-31T09:48:30;10.02;;;8.18;;
37937;SDS011;23763;48.130;11.602;2022-10-31T09:56:46;13.05;;;8.20;;
37937;SDS011;23763;48.130;11.602;2022-10-31T09:59:34;10.13;;;8.65;;
37937;SDS011;23763;48.130;11.602;2022-10-31T10:02:01;12.90;;;8.20;;
37937;SDS011;23763;48.130;11.602;2022-10-31T10:24:17;11.52;;;9.25;;
37937;SDS011;23763;48.130;11.602;2022-10-31T10:32:42;9.57;;;8.20;;
37937;SDS011;23763;48.130;11.602;2022-10-31T10:35:33;10.23;;;7.57;;
37937;SDS011;23763;48.130;11.602;2022-10-31T10:40:37;8.27;;;7.45;;
37937;SDS011;23763;48.130;11.602;2022-10-31T10:46:16;11.30;;;8.13;;
37937;SDS011;23763;48.130;11.602;2022-10-31T10:49:25;8.32;;;7.63;;
37937;SDS011;23763;48.130;11.602;2022-10-31T10:57:32;11.98;;;8.40;;
37937;SDS011;23763;48.130;11.602;2022-10-31T11:00:10;9.27;;;8.25;;
37937;SDS011;23763;48.130;11.602;2022-10-31T11:02:41;8.40;;;7.65;;
37937;SDS011;23763;48.130;11.602;2022-10-31T11:05:11;13.20;;;7.80;;
37937;SDS011;23763;48.130;11.602;2022-10-31T11:07:48;11.77;;;8.15;;
37937;SDS011;23763;48.130;11.602;2022-10-31T11:10:14;8.88;;;8.02;;
37937;SDS011;23763;48.130;11.602;2022-10-31T11:12:41;11.73;;;7.85;;
37937;SDS011;23763;48.130;11.602;2022-10-31T11:15:22;9.30;;;7.00;;
37937;SDS011;23763;48.130;11.602;2022-10-31T11:17:51;9.40;;;7.60;;
37937;SDS011;23763;48.130;11.602;2022-10-31T11:22:46;10.82;;;8.40;;
37937;SDS011;23763;48.130;11.602;2022-10-31T11:27:44;9.45;;;8.48;;
37937;SDS011;23763;48.130;11.602;2022-10-31T11:30:29;11.75;;;9.52;;
37937;SDS011;23763;48.130;11.602;2022-10-31T11:33:00;11.65;;;9.80;;
37937;SDS011;23763;48.130;11.602;2022-10-31T11:35:25;9.80;;;8.45;;
37937;SDS011;23763;48.130;11.602;2022-10-31T11:37:52;8.27;;;7.53;;
37937;SDS011;23763;48.130;11.602;2022-10-31T11:40:24;9.18;;;8.32;;
37937;SDS011;23763;48.130;11.602;2022-10-31T11:42:51;11.95;;;7.57;;
37937;SDS011;23763;48.130;11.602;2022-10-31T11:45:31;9.75;;;7.68;;
37937;SDS011;23763;48.130;11.602;2022-10-31T11:47:59;10.70;;;7.40;;
37937;SDS011;23763;48.130;11.602;2022-10-31T11:50:47;8.40;;;7.57;;
37937;SDS011;23763;48.130;11.602;2022-10-31T11:53:28;9.65;;;7.80;;
37937;SDS011;23763;48.130;11.602;2022-10-31T11:56:00;14.15;;;8.30;;
37937;SDS011;23763;48.130;11.602;2022-10-31T11:58:26;11.23;;;8.60;;
37937;SDS011;23763;48.130;11.602;2022-10-31T12:00:54;8.80;;;8.10;;
37937;SDS011;23763;48.130;11.602;2022-10-31T12:06:14;13.07;;;7.93;;
37937;SDS011;23763;48.130;11.602;2022-10-31T12:08:54;13.77;;;8.02;;
37937;SDS011;23763;48.130;11.602;2022-10-31T12:14:09;11.35;;;8.20;;
37937;SDS011;23763;48.130;11.602;2022-10-31T12:24:39;9.90;;;7.93;;
37937;SDS011;23763;48.130;11.602;2022-10-31T12:32:34;10.00;;;8.65;;
37937;SDS011;23763;48.130;11.602;2022-10-31T12:46:22;12.43;;;8.88;;
37937;SDS011;23763;48.130;11.602;2022-10-31T12:54:13;11.55;;;8.65;;
37937;SDS011;23763;48.130;11.602;2022-10-31T12:59:43;10.65;;;8.68;;
37937;SDS011;23763;48.130;11.602;2022-10-31T13:05:04;12.27;;;9.07;;
37937;SDS011;23763;48.130;11.602;2022-10-31T13:07:43;12.68;;;8.88;;
37937;SDS011;23763;48.130;11.602;2022-10-31T13:12:42;15.43;;;9.65;;
37937;SDS011;23763;48.130;11.602;2022-10-31T13:15:18;9.07;;;8.20;;
37937;SDS011;23763;48.130;11.602;2022-10-31T13:17:57;11.00;;;8.07;;
37937;SDS011;23763;48.130;11.602;2022-10-31T13:23:33;9.60;;;7.90;;
37937;SDS011;23763;48.130;11.602;2022-10-31T13:26:03;16.85;;;9.13;;
37937;SDS011;23763;48.130;11.602;2022-10-31T13:28:37;11.68;;;8.60;;
37937;SDS011;23763;48.130;11.602;2022-10-31T13:31:17;15.98;;;10.75;;
37937;SDS011;23763;48.130;11.602;2022-10-31T13:33:46;14.75;;;9.95;;
37937;SDS011;23763;48.130;11.602;2022-10-31T13:38:54;11.75;;;8.63;;
37937;SDS011;23763;48.130;11.602;2022-10-31T13:41:59;17.00;;;9.50;;
37937;SDS011;23763;48.130;11.602;2022-10-31T13:44:35;11.07;;;8.07;;
37937;SDS011;23763;48.130;11.602;2022-10-31T13:47:26;9.95;;;8.48;;
37937;SDS011;23763;48.130;11.602;2022-10-31T13:50:02;11.35;;;8.07;;
37937;SDS011;23763;48.130;11.602;2022-10-31T13:52:44;12.00;;;8.85;;
37937;SDS011;23763;48.130;11.602;2022-10-31T13:58:03;9.23;;;8.00;;
37937;SDS011;23763;48.130;11.602;2022-10-31T14:00:30;9.35;;;8.25;;
37937;SDS011;23763;48.130;11.602;2022-10-31T14:02:59;13.70;;;8.82;;
37937;SDS011;23763;48.130;11.602;2022-10-31T14:05:30;10.02;;;8.95;;
37937;SDS011;23763;48.130;11.602;2022-10-31T14:07:58;10.85;;;8.45;;
37937;SDS011;23763;48.130;11.602;2022-10-31T14:10:45;10.50;;;8.13;;
37937;SDS011;23763;48.130;11.602;2022-10-31T14:13:18;11.18;;;8.20;;
37937;SDS011;23763;48.130;11.602;2022-10-31T14:16:27;9.73;;;8.50;;
37937;SDS011;23763;48.130;11.602;2022-10-31T14:21:27;10.32;;;8.95;;
37937;SDS011;23763;48.130;11.602;2022-10-31T14:23:55;14.68;;;9.52;;
37937;SDS011;23763;48.130;11.602;2022-10-31T14:29:04;12.05;;;8.68;;
37937;SDS011;23763;48.130;11.602;2022-10-31T14:34:34;10.40;;;8.88;;
37937;SDS011;23763;48.130;11.602;2022-10-31T14:37:13;11.43;;;9.10;;
37937;SDS011;23763;48.130;11.602;2022-10-31T14:42:37;10.85;;;8.93;;
37937;SDS011;23763;48.130;11.602;2022-10-31T14:51:16;12.80;;;9.48;;
37937;SDS011;23763;48.130;11.602;2022-10-31T14:53:51;11.73;;;9.55;;
37937;SDS011;23763;48.130;11.602;2022-10-31T14:58:50;15.27;;;10.30;;
37937;SDS011;23763;48.130;11.602;2022-10-31T15:03:51;14.52;;;10.27;;
37937;SDS011;23763;48.130;11.602;2022-10-31T15:06:19;15.13;;;10.98;;
37937;SDS011;23763;48.130;11.602;2022-10-31T15:08:48;15.02;;;11.52;;
37937;SDS011;23763;48.130;11.602;2022-10-31T15:11:19;20.98;;;11.68;;
37937;SDS011;23763;48.130;11.602;2022-10-31T15:13:53;12.90;;;11.60;;
37937;SDS011;23763;48.130;11.602;2022-10-31T15:16:21;12.85;;;10.93;;
37937;SDS011;23763;48.130;11.602;2022-10-31T15:19:05;14.23;;;11.50;;
37937;SDS011;23763;48.130;11.602;2022-10-31T15:21:42;18.52;;;12.30;;
37937;SDS011;23763;48.130;11.602;2022-10-31T15:24:15;16.08;;;11.95;;
37937;SDS011;23763;48.130;11.602;2022-10-31T15:26:44;16.70;;;12.23;;
37937;SDS011;23763;48.130;11.602;2022-10-31T15:29:12;14.52;;;12.43;;
37937;SDS011;23763;48.130;11.602;2022-10-31T15:31:48;14.70;;;12.40;;
37937;SDS011;23763;48.130;11.602;2022-10-31T15:37:04;15.85;;;13.23;;
37937;SDS011;23763;48.130;11.602;2022-10-31T15:39:35;17.05;;;13.18;;
37937;SDS011;23763;48.130;11.602;2022-10-31T15:42:01;19.10;;;12.50;;
37937;SDS011;23763;48.130;11.602;2022-10-31T15:47:01;17.38;;;13.07;;
37937;SDS011;23763;48.130;11.602;2022-10-31T15:51:57;25.90;;;13.45;;
37937;SDS011;23763;48.130;11.602;2022-10-31T15:54:27;18.58;;;13.63;;
37937;SDS011;23763;48.130;11.602;2022-10-31T15:56:53;17.48;;;13.60;;
37937;SDS011;23763;48.130;11.602;2022-10-31T15:59:20;15.00;;;13.40;;
37937;SDS011;23763;48.130;11.602;2022-10-31T16:02:23;18.00;;;13.15;;
37937;SDS011;23763;48.130;11.602;2022-10-31T16:07:21;16.65;;;14.50;;
37937;SDS011;23763;48.130;11.602;2022-10-31T16:09:58;15.38;;;13.57;;
37937;SDS011;23763;48.130;11.602;2022-10-31T16:12:29;15.75;;;13.80;;
37937;SDS011;23763;48.130;11.602;2022-10-31T16:15:15;16.08;;;14.55;;
37937;SDS011;23763;48.130;11.602;2022-10-31T16:17:46;17.23;;;15.32;;
37937;SDS011;23763;48.130;11.602;2022-10-31T16:20:23;16.88;;;14.75;;
37937;SDS011;23763;48.130;11.602;2022-10-31T16:22:52;20.50;;;18.20;;
37937;SDS011;23763;48.130;11.602;2022-10-31T16:25:25;20.50;;;18.50;;
37937;SDS011;23763;48.130;11.602;2022-10-31T16:27:53;17.90;;;15.82;;
37937;SDS011;23763;48.130;11.602;2022-10-31T16:30:28;18.20;;;16.35;;
37937;SDS011;23763;48.130;11.602;2022-10-31T16:33:04;20.50;;;14.88;;
37937;SDS011;23763;48.130;11.602;2022-10-31T16:35:45;20.15;;;14.60;;
37937;SDS011;23763;48.130;11.602;2022-10-31T16:38:11;19.38;;;16.85;;
37937;SDS011;23763;48.130;11.602;2022-10-31T16:40:37;16.33;;;14.63;;
37937;SDS011;23763;48.130;11.602;2022-10-31T16:43:04;20.35;;;12.98;;
37937;SDS011;23763;48.130;11.602;2022-10-31T16:45:30;17.38;;;13.45;;
37937;SDS011;23763;48.130;11.602;2022-10-31T16:48:05;17.55;;;14.07;;
37937;SDS011;23763;48.130;11.602;2022-10-31T16:50:34;15.88;;;14.27;;
37937;SDS011;23763;48.130;11.602;2022-10-31T16:53:02;17.58;;;12.80;;
37937;SDS011;23763;48.130;11.602;2022-10-31T16:55:27;18.65;;;13.13;;
37937;SDS011;23763;48.130;11.602;2022-10-31T16:57:53;16.85;;;13.38;;
37937;SDS011;23763;48.130;11.602;2022-10-31T17:00:22;14.57;;;12.55;;
37937;SDS011;23763;48.130;11.602;2022-10-31T17:02:50;18.63;;;14.85;;
37937;SDS011;23763;48.130;11.602;2022-10-31T17:05:17;15.43;;;12.93;;
37937;SDS011;23763;48.130;11.602;2022-10-31T17:07:43;18.35;;;13.52;;
37937;SDS011;23763;48.130;11.602;2022-10-31T17:10:10;17.05;;;13.02;;
37937;SDS011;23763;48.130;11.602;2022-10-31T17:12:38;24.85;;;19.00;;
37937;SDS011;23763;48.130;11.602;2022-10-31T17:15:14;18.00;;;15.23;;
37937;SDS011;23763;48.130;11.602;2022-10-31T17:17:40;17.35;;;13.93;;